createdAt,value
2022-07-30T00:02:13.315Z,49.75
2022-07-30T00:04:41.341Z,49.64
2022-07-30T00:07:09.624Z,49.91
2022-07-30T00:09:37.493Z,50.33
2022-07-30T00:12:08.271Z,49.08
2022-07-30T00:14:37.018Z,50.32
2022-07-30T00:17:06.301Z,50.49
2022-07-30T00:19:35.538Z,50.66
2022-07-30T00:22:04.031Z,49.49
2022-07-30T00:24:31.991Z,49.79
2022-07-30T00:27:00.194Z,50.71
2022-07-30T00:29:30.846Z,49.76
2022-07-30T00:31:58.801Z,50.96
2022-07-30T00:34:26.848Z,50.63
2022-07-30T00:36:54.859Z,51.24
2022-07-30T00:39:22.849Z,51.38
2022-07-30T00:42:03.101Z,52.24
2022-07-30T00:44:32.537Z,50.44
2022-07-30T00:47:00.890Z,52.16
2022-07-30T00:49:29.128Z,52.91
2022-07-30T00:51:57.357Z,52.41
2022-07-30T00:54:25.406Z,52.82
2022-07-30T00:56:53.598Z,52.96
2022-07-30T00:59:22.231Z,53.23
2022-07-30T01:01:52.205Z,52.74
2022-07-30T01:04:20.155Z,52.41
2022-07-30T01:06:48.173Z,51.90
2022-07-30T01:09:16.183Z,51.39
2022-07-30T01:11:44.849Z,52.79
2022-07-30T01:14:13.568Z,53.11
2022-07-30T01:16:43.914Z,53.39
2022-07-30T01:19:40.241Z,52.60
2022-07-30T01:22:35.602Z,53.12
2022-07-30T01:25:15.168Z,52.67
2022-07-30T01:27:49.710Z,52.98
2022-07-30T01:30:24.292Z,54.20
2022-07-30T01:32:55.427Z,53.50
2022-07-30T01:35:26.624Z,52.41
2022-07-30T01:37:57.329Z,53.79
2022-07-30T01:40:28.843Z,53.59
2022-07-30T01:43:01.577Z,54.37
2022-07-30T01:45:35.702Z,53.47
2022-07-30T01:48:13.243Z,54.46
2022-07-30T01:50:46.700Z,53.93
2022-07-30T01:53:18.890Z,54.94
2022-07-30T01:55:48.456Z,54.31
2022-07-30T01:58:22.215Z,54.03
2022-07-30T02:00:52.393Z,55.06
2022-07-30T02:03:21.984Z,55.42
2022-07-30T02:05:56.996Z,55.48
2022-07-30T02:08:37.420Z,55.11
2022-07-30T02:11:09.510Z,54.73
2022-07-30T02:13:48.766Z,54.99
2022-07-30T02:16:23.694Z,56.25
2022-07-30T02:19:04.365Z,55.48
2022-07-30T02:21:41.341Z,54.59
2022-07-30T02:24:25.390Z,56.35
2022-07-30T02:27:00.940Z,55.66
2022-07-30T02:29:34.262Z,55.08
2022-07-30T02:32:06.722Z,53.48
2022-07-30T02:34:39.939Z,55.29
2022-07-30T02:37:11.427Z,56.43
2022-07-30T02:39:42.845Z,56.79
2022-07-30T02:42:13.902Z,56.06
2022-07-30T02:44:45.822Z,57.01
2022-07-30T02:47:16.490Z,55.91
2022-07-30T02:49:48.256Z,55.42
2022-07-30T02:52:19.602Z,56.30
2022-07-30T02:54:51.500Z,56.66
2022-07-30T02:57:22.459Z,56.84
2022-07-30T02:59:55.264Z,56.28
2022-07-30T03:02:25.886Z,56.70
2022-07-30T03:05:00.897Z,56.87
2022-07-30T03:07:30.702Z,56.17
2022-07-30T03:10:02.031Z,55.12
2022-07-30T03:12:32.839Z,55.31
2022-07-30T03:15:02.367Z,55.26
2022-07-30T03:17:38.537Z,55.92
2022-07-30T03:20:12.134Z,54.93
2022-07-30T03:22:47.090Z,54.89
2022-07-30T03:25:20.120Z,54.86
2022-07-30T03:27:50.118Z,55.80
2022-07-30T03:30:19.939Z,55.49
2022-07-30T03:32:48.997Z,56.10
2022-07-30T03:35:18.221Z,54.84
2022-07-30T03:37:50.531Z,55.28
2022-07-30T03:40:19.582Z,55.28
2022-07-30T03:42:48.267Z,55.51
2022-07-30T03:45:18.160Z,56.83
2022-07-30T03:47:49.057Z,56.51
2022-07-30T03:50:17.435Z,56.94
2022-07-30T03:52:46.362Z,55.59
2022-07-30T03:55:15.043Z,55.05
2022-07-30T03:57:43.211Z,53.60
2022-07-30T04:00:17.223Z,53.72
2022-07-30T04:02:47.743Z,52.62
2022-07-30T04:05:17.434Z,52.85
2022-07-30T04:07:45.661Z,53.40
2022-07-30T04:10:16.439Z,52.89
2022-07-30T04:12:44.535Z,53.51
2022-07-30T04:16:16.700Z,54.26
2022-07-30T04:18:05.492Z,53.44
2022-07-30T04:20:42.787Z,53.38
2022-07-30T04:23:12.293Z,54.28
2022-07-30T04:25:41.768Z,54.60
2022-07-30T04:28:12.811Z,54.10
2022-07-30T04:30:42.500Z,54.37
2022-07-30T04:33:11.951Z,53.91
2022-07-30T04:35:51.538Z,54.85
2022-07-30T04:38:21.497Z,55.49
2022-07-30T04:40:50.284Z,55.39
2022-07-30T04:43:18.492Z,54.47
2022-07-30T04:45:46.798Z,55.65
2022-07-30T04:48:16.171Z,56.48
2022-07-30T04:50:50.018Z,55.96
2022-07-30T04:53:19.703Z,56.14
2022-07-30T04:55:50.437Z,56.36
2022-07-30T04:58:22.093Z,55.24
2022-07-30T05:00:52.259Z,56.81
2022-07-30T05:03:24.576Z,56.37
2022-07-30T05:05:57.477Z,56.92
2022-07-30T05:08:26.691Z,57.31
2022-07-30T05:10:55.344Z,57.92
2022-07-30T05:13:23.507Z,56.03
2022-07-30T05:16:02.961Z,57.37
2022-07-30T05:18:32.452Z,57.25
2022-07-30T05:21:00.314Z,58.05
2022-07-30T05:23:28.328Z,56.95
2022-07-30T05:25:56.472Z,56.52
2022-07-30T05:28:26.651Z,56.94
2022-07-30T05:30:55.782Z,55.32
2022-07-30T05:33:38.787Z,53.96
2022-07-30T05:36:11.704Z,54.93
2022-07-30T05:38:39.773Z,54.40
2022-07-30T05:41:31.720Z,55.02
2022-07-30T05:43:56.254Z,55.20
2022-07-30T05:46:25.135Z,55.84
2022-07-30T05:48:53.551Z,54.66
2022-07-30T05:51:23.052Z,55.63
2022-07-30T05:53:51.827Z,56.96
2022-07-30T05:56:19.953Z,55.03
2022-07-30T05:58:47.912Z,55.83
2022-07-30T06:01:15.862Z,54.93
2022-07-30T06:03:43.796Z,56.12
2022-07-30T06:06:11.755Z,54.57
2022-07-30T06:08:40.987Z,55.33
2022-07-30T06:11:09.848Z,54.53
2022-07-30T06:13:38.401Z,53.40
2022-07-30T06:16:06.796Z,55.13
2022-07-30T06:18:34.786Z,55.19
2022-07-30T06:21:02.790Z,54.53
2022-07-30T06:23:30.681Z,54.19
2022-07-30T06:26:00.013Z,54.64
2022-07-30T06:28:37.693Z,53.27
2022-07-30T06:31:06.674Z,52.66
2022-07-30T06:33:35.308Z,53.89
2022-07-30T06:36:03.366Z,52.97
2022-07-30T06:38:31.736Z,54.46
2022-07-30T06:41:02.811Z,53.85
2022-07-30T06:43:32.459Z,54.12
2022-07-30T06:46:00.784Z,53.88
2022-07-30T06:48:30.945Z,53.98
2022-07-30T06:50:58.913Z,52.53
2022-07-30T06:53:26.988Z,52.86
2022-07-30T06:56:00.249Z,53.24
2022-07-30T06:58:30.259Z,53.79
2022-07-30T07:00:58.301Z,52.92
2022-07-30T07:03:39.675Z,52.78
2022-07-30T07:06:09.121Z,53.98
2022-07-30T07:08:38.291Z,53.80
2022-07-30T07:11:06.186Z,54.42
2022-07-30T07:13:35.496Z,53.39
2022-07-30T07:16:04.178Z,53.79
2022-07-30T07:18:32.520Z,52.92
2022-07-30T07:21:00.621Z,52.01
2022-07-30T07:23:41.823Z,54.24
2022-07-30T07:26:11.649Z,54.45
2022-07-30T07:28:41.346Z,54.41
2022-07-30T07:31:10.202Z,53.40
2022-07-30T07:33:39.479Z,52.67
2022-07-30T07:36:08.013Z,55.56
2022-07-30T07:38:36.800Z,56.20
2022-07-30T07:41:05.404Z,54.21
2022-07-30T07:43:33.775Z,52.68
2022-07-30T07:46:03.082Z,52.06
2022-07-30T07:48:31.387Z,54.71
2022-07-30T07:51:00.484Z,53.97
2022-07-30T07:53:29.062Z,55.04
2022-07-30T07:55:57.447Z,53.67
2022-07-30T07:58:26.611Z,53.14
2022-07-30T08:00:55.545Z,53.01
2022-07-30T08:03:24.944Z,55.02
2022-07-30T08:05:58.153Z,54.46
2022-07-30T08:08:36.628Z,53.76
2022-07-30T08:11:06.553Z,53.16
2022-07-30T08:13:49.061Z,52.45
2022-07-30T08:16:20.462Z,51.95
2022-07-30T08:18:50.084Z,51.70
2022-07-30T08:21:18.169Z,51.54
2022-07-30T08:23:46.279Z,52.87
2022-07-30T08:26:14.292Z,52.23
2022-07-30T08:28:43.103Z,52.67
2022-07-30T08:31:11.225Z,51.18
2022-07-30T08:33:39.019Z,51.50
2022-07-30T08:36:09.857Z,52.31
2022-07-30T08:38:39.248Z,53.29
2022-07-30T08:41:07.639Z,51.71
2022-07-30T08:43:37.628Z,50.73
2022-07-30T08:46:11.023Z,52.00
2022-07-30T08:48:39.481Z,52.42
2022-07-30T08:51:09.910Z,51.71
2022-07-30T08:53:38.022Z,52.07
2022-07-30T08:56:08.582Z,51.23
2022-07-30T08:58:36.563Z,51.38
2022-07-30T09:01:06.849Z,53.82
2022-07-30T09:03:36.512Z,54.35
2022-07-30T09:06:13.637Z,53.91
2022-07-30T09:08:41.775Z,51.71
2022-07-30T09:11:09.851Z,52.09
2022-07-30T09:13:41.690Z,52.42
2022-07-30T09:16:21.809Z,52.59
2022-07-30T09:18:50.885Z,52.50
2022-07-30T09:21:24.154Z,54.31
2022-07-30T09:24:00.513Z,53.58
2022-07-30T09:26:29.649Z,52.91
2022-07-30T09:29:16.499Z,51.84
2022-07-30T09:31:55.820Z,51.59
2022-07-30T09:34:32.849Z,52.31
2022-07-30T09:37:05.243Z,50.50
2022-07-30T09:39:35.554Z,50.22
2022-07-30T09:42:05.772Z,52.65
2022-07-30T09:44:34.066Z,51.99
2022-07-30T09:47:02.887Z,50.47
2022-07-30T09:49:31.604Z,50.54
2022-07-30T09:52:01.113Z,50.56
2022-07-30T09:54:51.580Z,52.13
2022-07-30T09:57:26.010Z,51.91
2022-07-30T09:59:57.549Z,50.77
2022-07-30T10:02:35.389Z,52.15
2022-07-30T10:05:19.133Z,52.71
2022-07-30T10:07:56.329Z,52.46
2022-07-30T10:10:27.638Z,51.44
2022-07-30T10:13:01.104Z,51.34
2022-07-30T10:15:35.672Z,51.38
2022-07-30T10:18:06.692Z,51.30
2022-07-30T10:20:37.648Z,51.13
2022-07-30T10:23:10.876Z,51.86
2022-07-30T10:25:49.071Z,51.51
2022-07-30T10:28:22.943Z,51.32
2022-07-30T10:30:53.350Z,49.96
2022-07-30T10:33:36.334Z,49.94
2022-07-30T10:36:12.079Z,50.73
2022-07-30T10:38:44.764Z,50.46
2022-07-30T10:41:42.829Z,49.36
2022-07-30T10:44:51.814Z,49.36
2022-07-30T10:47:23.704Z,50.26
2022-07-30T10:50:11.577Z,50.53
2022-07-30T10:52:52.050Z,50.36
2022-07-30T10:55:32.865Z,50.34
2022-07-30T10:58:09.870Z,49.09
2022-07-30T11:01:01.569Z,49.16
2022-07-30T11:03:41.558Z,50.36
2022-07-30T11:06:29.647Z,48.39
2022-07-30T11:08:58.162Z,49.92
2022-07-30T11:12:01.161Z,49.81
2022-07-30T11:14:58.373Z,48.35
2022-07-30T11:18:01.002Z,47.71
2022-07-30T11:20:29.685Z,47.14
2022-07-30T11:23:26.255Z,46.90
2022-07-30T11:25:55.024Z,45.99
2022-07-30T11:28:40.375Z,46.08
2022-07-30T11:31:37.218Z,45.50
2022-07-30T11:34:30.739Z,46.47
2022-07-30T11:37:18.534Z,44.16
2022-07-30T11:40:11.378Z,44.77
2022-07-30T11:42:43.518Z,45.43
2022-07-30T11:45:27.031Z,44.52
2022-07-30T11:48:00.207Z,43.68
2022-07-30T11:50:32.281Z,44.74
2022-07-30T11:53:03.209Z,44.40
2022-07-30T11:55:33.599Z,44.70
2022-07-30T11:58:04.345Z,44.35
2022-07-30T12:00:40.643Z,44.70
2022-07-30T12:03:11.749Z,44.94
2022-07-30T12:05:40.473Z,43.97
2022-07-30T12:08:08.709Z,43.11
2022-07-30T12:10:59.700Z,43.88
2022-07-30T12:13:44.527Z,42.46
2022-07-30T12:16:18.009Z,42.44
2022-07-30T12:18:47.313Z,43.26
2022-07-30T12:21:16.784Z,43.53
2022-07-30T12:23:55.034Z,41.42
2022-07-30T12:26:24.658Z,43.24
2022-07-30T12:28:56.151Z,43.30
2022-07-30T12:31:26.407Z,43.68
2022-07-30T12:33:56.309Z,42.85
2022-07-30T12:36:31.269Z,43.18
2022-07-30T12:39:00.460Z,43.50
2022-07-30T12:41:47.128Z,43.24
2022-07-30T12:44:38.304Z,43.99
2022-07-30T12:47:20.801Z,42.16
2022-07-30T12:49:50.317Z,42.83
2022-07-30T12:52:28.272Z,42.33
2022-07-30T12:55:08.721Z,42.68
2022-07-30T12:57:54.830Z,42.24
2022-07-30T13:00:24.075Z,43.83
2022-07-30T13:02:53.552Z,43.75
2022-07-30T13:05:22.021Z,44.61
2022-07-30T13:07:59.134Z,43.93
2022-07-30T13:10:31.133Z,43.80
2022-07-30T13:12:59.762Z,44.18
2022-07-30T13:15:27.946Z,42.55
2022-07-30T13:17:57.181Z,42.20
2022-07-30T13:20:25.058Z,41.68
2022-07-30T13:22:52.883Z,42.32
2022-07-30T13:25:20.773Z,41.85
2022-07-30T13:27:49.051Z,41.29
2022-07-30T13:30:16.902Z,40.75
2022-07-30T13:32:44.744Z,40.47
2022-07-30T13:35:13.918Z,40.35
2022-07-30T13:37:41.790Z,40.98
2022-07-30T13:40:11.453Z,41.41
2022-07-30T13:42:39.316Z,40.63
2022-07-30T13:45:09.654Z,40.79
2022-07-30T13:47:37.634Z,41.89
2022-07-30T13:50:06.792Z,40.75
2022-07-30T13:52:36.067Z,40.89
2022-07-30T13:55:03.944Z,39.67
2022-07-30T13:57:31.784Z,40.05
2022-07-30T13:59:59.571Z,39.12
2022-07-30T14:02:27.901Z,40.81
2022-07-30T14:04:55.992Z,40.29
2022-07-30T14:07:24.002Z,41.25
2022-07-30T14:09:54.632Z,42.23
2022-07-30T14:12:22.672Z,43.05
2022-07-30T14:14:50.514Z,43.05
2022-07-30T14:17:18.490Z,42.12
2022-07-30T14:19:47.146Z,41.25
2022-07-30T14:22:15.059Z,40.72
2022-07-30T14:24:42.970Z,40.91
2022-07-30T14:27:12.128Z,41.79
2022-07-30T14:29:40.083Z,41.66
2022-07-30T14:32:08.021Z,41.83
2022-07-30T14:34:35.941Z,41.49
2022-07-30T14:37:04.290Z,41.15
2022-07-30T14:39:32.548Z,42.04
2022-07-30T14:42:00.398Z,40.82
2022-07-30T14:44:29.603Z,40.50
2022-07-30T14:46:57.469Z,41.33
2022-07-30T14:49:25.449Z,41.60
2022-07-30T14:51:53.775Z,41.40
2022-07-30T14:54:22.345Z,42.74
2022-07-30T14:56:54.887Z,41.68
2022-07-30T14:59:26.546Z,40.32
2022-07-30T15:01:56.096Z,40.66
2022-07-30T15:04:24.242Z,42.00
2022-07-30T15:06:52.120Z,42.98
2022-07-30T15:09:20.709Z,41.97
2022-07-30T15:12:07.972Z,41.38
2022-07-30T15:14:39.987Z,40.57
2022-07-30T15:17:09.732Z,41.57
2022-07-30T15:19:37.565Z,41.72
2022-07-30T15:22:18.258Z,40.86
2022-07-30T15:24:46.079Z,39.93
2022-07-30T15:27:14.087Z,39.91
2022-07-30T15:29:41.949Z,40.11
2022-07-30T15:32:11.241Z,41.58
2022-07-30T15:34:39.219Z,42.09
2022-07-30T15:37:07.146Z,42.11
2022-07-30T15:39:35.853Z,42.28
2022-07-30T15:42:06.146Z,42.15
2022-07-30T15:44:35.197Z,43.00
2022-07-30T15:47:03.025Z,41.84
2022-07-30T15:49:32.311Z,41.23
2022-07-30T15:52:01.797Z,42.33
2022-07-30T15:54:29.868Z,41.17
2022-07-30T15:57:01.089Z,40.52
2022-07-30T15:59:29.989Z,41.67
2022-07-30T16:01:58.945Z,41.32
2022-07-30T16:04:31.325Z,42.02
2022-07-30T16:07:01.649Z,41.32
2022-07-30T16:09:29.797Z,40.04
2022-07-30T16:11:58.278Z,39.90
2022-07-30T16:14:27.049Z,40.48
2022-07-30T16:16:54.989Z,40.80
2022-07-30T16:19:23.013Z,40.92
2022-07-30T16:21:50.997Z,42.22
2022-07-30T16:24:20.398Z,40.36
2022-07-30T16:26:48.327Z,40.71
2022-07-30T16:29:16.199Z,40.16
2022-07-30T16:31:44.196Z,40.68
2022-07-30T16:34:12.224Z,39.99
2022-07-30T16:36:40.119Z,39.89
2022-07-30T16:39:08.233Z,40.17
2022-07-30T16:41:38.356Z,40.34
2022-07-30T16:44:06.537Z,40.48
2022-07-30T16:46:34.425Z,40.22
2022-07-30T16:49:02.388Z,41.46
2022-07-30T16:51:30.682Z,40.56
2022-07-30T16:53:58.541Z,40.28
2022-07-30T16:56:26.508Z,40.82
2022-07-30T16:58:55.717Z,40.82
2022-07-30T17:01:23.720Z,39.57
2022-07-30T17:03:51.624Z,38.46
2022-07-30T17:06:19.654Z,40.00
2022-07-30T17:08:47.634Z,40.81
2022-07-30T17:11:47.426Z,39.87
2022-07-30T17:14:06.400Z,39.96
2022-07-30T17:16:34.305Z,40.25
2022-07-30T17:19:09.247Z,39.87
2022-07-30T17:21:38.949Z,40.28
2022-07-30T17:24:11.305Z,39.95
2022-07-30T17:26:42.807Z,39.70
2022-07-30T17:29:14.667Z,40.19
2022-07-30T17:31:44.509Z,41.41
2022-07-30T17:34:14.545Z,40.76
2022-07-30T17:36:52.662Z,40.27
2022-07-30T17:40:26.985Z,41.02
2022-07-30T17:42:10.717Z,41.36
2022-07-30T17:44:42.034Z,40.88
2022-07-30T17:47:15.169Z,40.58
2022-07-30T17:49:44.886Z,40.83
2022-07-30T17:52:13.059Z,41.74
2022-07-30T17:54:41.273Z,41.27
2022-07-30T17:57:10.345Z,40.83
2022-07-30T17:59:38.365Z,41.44
2022-07-30T18:02:08.184Z,40.59
2022-07-30T18:04:36.593Z,39.73
2022-07-30T18:07:05.263Z,40.59
2022-07-30T18:09:39.269Z,40.77
2022-07-30T18:12:09.490Z,41.06
2022-07-30T18:14:38.685Z,41.14
2022-07-30T18:17:12.439Z,40.39
2022-07-30T18:19:42.246Z,40.83
2022-07-30T18:22:10.431Z,41.25
2022-07-30T18:24:43.961Z,41.17
2022-07-30T18:27:13.006Z,40.92
2022-07-30T18:29:41.209Z,41.04
2022-07-30T18:32:11.959Z,41.00
2022-07-30T18:34:42.925Z,41.13
2022-07-30T18:37:10.997Z,41.36
2022-07-30T18:39:38.899Z,40.52
2022-07-30T18:42:07.912Z,41.25
2022-07-30T18:44:36.370Z,41.36
2022-07-30T18:47:04.453Z,41.04
2022-07-30T18:49:37.055Z,41.09
2022-07-30T18:52:08.011Z,41.67
2022-07-30T18:54:38.687Z,41.04
2022-07-30T18:57:11.261Z,40.87
2022-07-30T18:59:40.640Z,41.33
2022-07-30T19:02:08.460Z,41.72
2022-07-30T19:04:37.874Z,41.58
2022-07-30T19:07:07.173Z,41.28
2022-07-30T19:09:35.568Z,41.15
2022-07-30T19:12:03.981Z,42.01
2022-07-30T19:14:32.203Z,42.07
2022-07-30T19:17:00.187Z,41.46
2022-07-30T19:19:28.915Z,41.44
2022-07-30T19:21:59.101Z,40.87
2022-07-30T19:24:28.892Z,41.14
2022-07-30T19:26:57.999Z,41.65
2022-07-30T19:29:26.083Z,41.26
2022-07-30T19:31:55.068Z,41.04
2022-07-30T19:34:23.263Z,41.38
2022-07-30T19:36:51.820Z,41.63
2022-07-30T19:39:22.105Z,41.06
2022-07-30T19:41:50.953Z,41.59
2022-07-30T19:44:19.428Z,43.15
2022-07-30T19:46:48.659Z,42.72
2022-07-30T19:49:19.837Z,46.06
2022-07-30T19:52:10.584Z,44.56
2022-07-30T19:54:41.505Z,46.50
2022-07-30T19:57:09.522Z,47.70
2022-07-30T19:59:46.152Z,47.19
2022-07-30T20:02:27.156Z,47.16
2022-07-30T20:04:55.889Z,48.86
2022-07-30T20:07:27.569Z,48.89
2022-07-30T20:09:57.119Z,49.34
2022-07-30T20:12:25.209Z,48.94
2022-07-30T20:14:54.601Z,48.64
2022-07-30T20:17:23.776Z,49.71
2022-07-30T20:19:57.962Z,49.57
2022-07-30T20:22:28.939Z,49.39
2022-07-30T20:25:07.986Z,49.99
2022-07-30T20:30:26.012Z,50.48
2022-07-30T20:32:54.203Z,51.18
2022-07-30T20:35:26.213Z,51.20
2022-07-30T20:37:56.310Z,51.31
2022-07-30T20:40:27.138Z,51.85
2022-07-30T20:43:00.028Z,51.59
2022-07-30T20:45:40.267Z,51.32
2022-07-30T20:48:17.469Z,51.55
2022-07-30T20:50:53.622Z,51.99
2022-07-30T20:53:23.425Z,52.56
2022-07-30T20:55:53.043Z,53.18
2022-07-30T20:58:22.132Z,52.49
2022-07-30T21:00:51.727Z,52.75
2022-07-30T21:03:21.270Z,52.71
2022-07-30T21:05:51.160Z,52.65
2022-07-30T21:08:21.373Z,53.18
2022-07-30T21:10:55.395Z,53.69
2022-07-30T21:13:26.554Z,53.50
2022-07-30T21:16:03.043Z,53.22
2022-07-30T21:18:32.744Z,52.80
2022-07-30T21:21:04.923Z,53.01
2022-07-30T21:23:34.344Z,53.26
2022-07-30T21:26:10.552Z,53.53
2022-07-30T21:28:43.915Z,53.53
2022-07-30T21:31:11.964Z,53.92
2022-07-30T21:33:42.480Z,53.88
2022-07-30T21:36:11.142Z,54.17
2022-07-30T21:38:41.861Z,54.30
2022-07-30T21:41:14.507Z,54.99
2022-07-30T21:43:44.575Z,54.65
2022-07-30T21:46:13.086Z,54.93
2022-07-30T21:48:43.389Z,54.73
2022-07-30T21:51:13.033Z,54.77
2022-07-30T21:53:44.914Z,55.24
2022-07-30T21:56:16.784Z,55.36
2022-07-30T21:58:45.569Z,55.23
2022-07-30T22:01:21.720Z,56.00
2022-07-30T22:04:03.414Z,56.20
2022-07-30T22:06:41.235Z,56.28
2022-07-30T22:09:19.565Z,56.44
2022-07-30T22:12:02.272Z,56.97
2022-07-30T22:14:37.591Z,56.71
2022-07-30T22:17:05.956Z,57.01
2022-07-30T22:19:51.471Z,57.26
2022-07-30T22:22:26.353Z,57.18
2022-07-30T22:24:57.313Z,57.67
2022-07-30T22:27:39.534Z,57.74
2022-07-30T22:30:13.868Z,58.00
2022-07-30T22:32:42.874Z,58.26
2022-07-30T22:35:11.988Z,58.42
2022-07-30T22:37:44.635Z,58.58
2022-07-30T22:40:14.149Z,59.12
2022-07-30T22:42:46.669Z,59.31
2022-07-30T22:45:46.569Z,59.29
2022-07-30T22:48:10.046Z,60.07
2022-07-30T22:50:39.745Z,60.27
2022-07-30T22:54:03.026Z,60.64
2022-07-30T22:55:56.092Z,61.02
2022-07-30T22:58:26.376Z,60.73
2022-07-30T23:00:55.410Z,60.63
2022-07-30T23:03:23.451Z,61.53
2022-07-30T23:05:56.798Z,61.38
2022-07-30T23:08:30.263Z,61.64
2022-07-30T23:11:00.170Z,63.06
2022-07-30T23:12:18.909Z,50.61
2022-07-30T23:13:29.966Z,62.68
2022-07-30T23:15:57.998Z,61.22
2022-07-30T23:18:26.157Z,61.21
2022-07-30T23:20:58.508Z,60.38
2022-07-30T23:23:30.883Z,58.61
2022-07-30T23:26:02.276Z,60.40
2022-07-30T23:28:31.672Z,60.86
2022-07-30T23:31:00.199Z,61.33
2022-07-30T23:33:28.387Z,61.63
2022-07-30T23:35:56.667Z,62.07
2022-07-30T23:38:25.289Z,62.17
2022-07-30T23:40:53.306Z,62.43
2022-07-30T23:43:21.309Z,62.27
2022-07-30T23:45:50.590Z,62.45
2022-07-30T23:48:18.570Z,63.26
2022-07-30T23:50:46.560Z,63.01
2022-07-30T23:53:14.874Z,63.15
2022-07-30T23:55:42.953Z,63.22
2022-07-30T23:58:10.999Z,63.49
